Wellington, CO

8:57 AM MDT on July 04, 2015 (GMT -0600)
La Luna Dairy | | Change Station
CLOSE
Current Station
Personal Weather Station
Location: Wellington, CO
Elevation: 5250 ft
Nearby Weather Stations

Elev 5250 ft 40.72 °N, 105.02 °W | Updated 4 minutes ago

Clear
Clear
74.0 °F
Feels Like 77 °F
N
4.0
Wind Variable Wind from NNW
Gusts 9.0 mph

Today
High -- | Low -- °F
--% Chance of Precip.
Yesterday
High -- | Low -- °F
Precip. -- in
5:34 AM 8:34 PM
Waning Gibbous, 92% visible
Pressure 30.02 in
Visibility 10.0 miles
Clouds Clear
Heat Index 77 °F
Dew Point 61 °F
Humidity 63%
Rainfall -999.00 in
Snow Depth Not available.
UV 4 out of 12
Pollen 5.60 out of 12
Air Quality Not available.
Flu Activity Not available.
METAR KFNL 041455Z AUTO 36004KT 10SM CLR 22/15 A3002 RMK AO1 54000

More Conditions Fewer Conditions

Pressure 30.02 in
Visibility 10.0 miles
Clouds Clear
Heat Index 77 °F
Dew Point 61 °F
Humidity 63%
Rainfall -999.00 in
Snow Depth Not available.
UV 4 out of 12
Pollen 5.60 out of 12
Air Quality Not available.
Flu Activity Not available.
METAR KFNL 041455Z AUTO 36004KT 10SM CLR 22/15 A3002 RMK AO1 54000

More Conditions Fewer Conditions

10-Day Weather Forecast

×

Almanac

Astronomy

Jul. 04, 2015 Rise Set
Actual Time
Civil Twilight
Nautical Twilight
Astronomical Twilight
Moon
Length of Visible Light
Length of Day
Tomorrow will be .
, % of the Moon is Illuminated

Today's Extremes

State Highs State Lows

Community

WunderPhotos

Upload Photos

1,834,982 photos uploaded!

WunderBlogs® & News

Nearby

Air Quality

  Air Quality AQ Index Pollutant
Not available.

Snow Depth

Station Depth Elevation

Earthquake Activity

City Distance Mag. Time & Date
Minimum magnitude displayed is 2.5.

Coastal Water Temperatures

Place Temperature

Stations

Nearby Weather Stations

Station Location Temp. Windchill Dew Point Humidity Wind Precip. Elev Updated Type